sensor_id;sensor_type;location;lat;lon;timestamp;P1;durP1;ratioP1;P2;durP2;ratioP2
64291;SDS011;50628;51.008;13.658;2023-04-21T00:03:45;24.90;;;17.67;;
64291;SDS011;50628;51.008;13.658;2023-04-21T00:08:48;25.57;;;16.87;;
64291;SDS011;50628;51.008;13.658;2023-04-21T00:13:50;22.10;;;17.13;;
64291;SDS011;50628;51.008;13.658;2023-04-21T00:18:52;23.67;;;18.87;;
64291;SDS011;50628;51.008;13.658;2023-04-21T00:23:55;26.03;;;17.20;;
64291;SDS011;50628;51.008;13.658;2023-04-21T00:28:57;23.77;;;17.33;;
64291;SDS011;50628;51.008;13.658;2023-04-21T00:33:59;22.90;;;17.03;;
64291;SDS011;50628;51.008;13.658;2023-04-21T00:39:02;20.63;;;16.07;;
64291;SDS011;50628;51.008;13.658;2023-04-21T00:44:05;25.73;;;16.70;;
64291;SDS011;50628;51.008;13.658;2023-04-21T00:49:07;23.27;;;17.30;;
64291;SDS011;50628;51.008;13.658;2023-04-21T00:54:11;22.80;;;17.43;;
64291;SDS011;50628;51.008;13.658;2023-04-21T00:59:14;25.13;;;18.83;;
64291;SDS011;50628;51.008;13.658;2023-04-21T01:04:16;18.57;;;14.80;;
64291;SDS011;50628;51.008;13.658;2023-04-21T01:09:19;18.90;;;15.10;;
64291;SDS011;50628;51.008;13.658;2023-04-21T01:14:21;21.63;;;17.57;;
64291;SDS011;50628;51.008;13.658;2023-04-21T01:19:23;24.63;;;17.73;;
64291;SDS011;50628;51.008;13.658;2023-04-21T01:24:36;23.20;;;17.47;;
64291;SDS011;50628;51.008;13.658;2023-04-21T01:29:39;23.07;;;16.97;;
64291;SDS011;50628;51.008;13.658;2023-04-21T01:34:42;19.30;;;14.20;;
64291;SDS011;50628;51.008;13.658;2023-04-21T01:39:46;17.50;;;13.73;;
64291;SDS011;50628;51.008;13.658;2023-04-21T01:44:53;23.70;;;14.50;;
64291;SDS011;50628;51.008;13.658;2023-04-21T01:49:55;22.37;;;15.00;;
64291;SDS011;50628;51.008;13.658;2023-04-21T01:54:58;24.53;;;17.10;;
64291;SDS011;50628;51.008;13.658;2023-04-21T02:00:02;20.90;;;15.50;;
64291;SDS011;50628;51.008;13.658;2023-04-21T02:05:15;20.23;;;14.73;;
64291;SDS011;50628;51.008;13.658;2023-04-21T02:10:18;25.97;;;15.50;;
64291;SDS011;50628;51.008;13.658;2023-04-21T02:15:20;20.37;;;14.40;;
64291;SDS011;50628;51.008;13.658;2023-04-21T02:20:22;16.30;;;13.67;;
64291;SDS011;50628;51.008;13.658;2023-04-21T02:25:25;20.17;;;14.20;;
64291;SDS011;50628;51.008;13.658;2023-04-21T02:30:27;21.67;;;15.33;;
64291;SDS011;50628;51.008;13.658;2023-04-21T02:35:30;22.70;;;16.53;;
64291;SDS011;50628;51.008;13.658;2023-04-21T02:40:34;20.47;;;15.40;;
64291;SDS011;50628;51.008;13.658;2023-04-21T02:45:36;20.77;;;15.80;;
64291;SDS011;50628;51.008;13.658;2023-04-21T02:50:38;20.67;;;16.20;;
64291;SDS011;50628;51.008;13.658;2023-04-21T02:55:41;28.17;;;14.83;;
64291;SDS011;50628;51.008;13.658;2023-04-21T03:00:43;23.30;;;16.00;;
64291;SDS011;50628;51.008;13.658;2023-04-21T03:05:45;24.27;;;16.37;;
64291;SDS011;50628;51.008;13.658;2023-04-21T03:10:48;26.60;;;15.70;;
64291;SDS011;50628;51.008;13.658;2023-04-21T03:15:50;22.83;;;16.83;;
64291;SDS011;50628;51.008;13.658;2023-04-21T03:20:57;31.40;;;17.70;;
64291;SDS011;50628;51.008;13.658;2023-04-21T03:26:04;29.53;;;17.07;;
64291;SDS011;50628;51.008;13.658;2023-04-21T03:31:07;27.47;;;16.63;;
64291;SDS011;50628;51.008;13.658;2023-04-21T03:36:09;21.90;;;16.60;;
64291;SDS011;50628;51.008;13.658;2023-04-21T03:41:13;29.20;;;17.33;;
64291;SDS011;50628;51.008;13.658;2023-04-21T03:46:18;28.93;;;18.93;;
64291;SDS011;50628;51.008;13.658;2023-04-21T03:51:21;26.60;;;17.60;;
64291;SDS011;50628;51.008;13.658;2023-04-21T03:56:24;24.23;;;16.67;;
64291;SDS011;50628;51.008;13.658;2023-04-21T04:01:26;27.33;;;16.10;;
64291;SDS011;50628;51.008;13.658;2023-04-21T04:06:28;31.63;;;19.63;;
64291;SDS011;50628;51.008;13.658;2023-04-21T04:11:31;37.97;;;21.70;;
64291;SDS011;50628;51.008;13.658;2023-04-21T04:16:33;35.80;;;16.80;;
64291;SDS011;50628;51.008;13.658;2023-04-21T04:21:35;28.53;;;16.53;;
64291;SDS011;50628;51.008;13.658;2023-04-21T04:26:38;21.87;;;17.03;;
64291;SDS011;50628;51.008;13.658;2023-04-21T04:31:40;39.07;;;20.77;;
64291;SDS011;50628;51.008;13.658;2023-04-21T04:36:42;36.43;;;21.13;;
64291;SDS011;50628;51.008;13.658;2023-04-21T04:41:45;39.80;;;22.33;;
64291;SDS011;50628;51.008;13.658;2023-04-21T04:46:47;26.97;;;18.60;;
64291;SDS011;50628;51.008;13.658;2023-04-21T04:51:49;28.63;;;18.47;;
64291;SDS011;50628;51.008;13.658;2023-04-21T04:56:53;31.40;;;18.33;;
64291;SDS011;50628;51.008;13.658;2023-04-21T05:01:55;33.27;;;19.37;;
64291;SDS011;50628;51.008;13.658;2023-04-21T05:06:57;32.33;;;19.50;;
64291;SDS011;50628;51.008;13.658;2023-04-21T05:12:00;29.47;;;20.10;;
64291;SDS011;50628;51.008;13.658;2023-04-21T05:17:02;35.67;;;21.00;;
64291;SDS011;50628;51.008;13.658;2023-04-21T05:22:04;34.80;;;21.03;;
64291;SDS011;50628;51.008;13.658;2023-04-21T05:27:08;34.03;;;18.43;;
64291;SDS011;50628;51.008;13.658;2023-04-21T05:32:10;39.27;;;21.10;;
64291;SDS011;50628;51.008;13.658;2023-04-21T05:37:12;30.13;;;19.60;;
64291;SDS011;50628;51.008;13.658;2023-04-21T05:42:15;31.63;;;18.40;;
64291;SDS011;50628;51.008;13.658;2023-04-21T05:47:17;30.10;;;18.80;;
64291;SDS011;50628;51.008;13.658;2023-04-21T05:52:19;37.07;;;19.03;;
64291;SDS011;50628;51.008;13.658;2023-04-21T05:57:23;37.57;;;17.90;;
64291;SDS011;50628;51.008;13.658;2023-04-21T06:02:24;31.53;;;16.87;;
64291;SDS011;50628;51.008;13.658;2023-04-21T06:07:26;39.97;;;18.00;;
64291;SDS011;50628;51.008;13.658;2023-04-21T06:12:29;31.53;;;15.87;;
64291;SDS011;50628;51.008;13.658;2023-04-21T06:17:31;34.23;;;16.33;;
64291;SDS011;50628;51.008;13.658;2023-04-21T06:22:33;33.67;;;18.07;;
64291;SDS011;50628;51.008;13.658;2023-04-21T06:27:36;30.93;;;16.90;;
64291;SDS011;50628;51.008;13.658;2023-04-21T06:32:38;36.60;;;18.10;;
64291;SDS011;50628;51.008;13.658;2023-04-21T06:37:40;35.00;;;17.50;;
64291;SDS011;50628;51.008;13.658;2023-04-21T06:42:44;38.70;;;20.20;;
64291;SDS011;50628;51.008;13.658;2023-04-21T06:47:46;33.30;;;17.83;;
64291;SDS011;50628;51.008;13.658;2023-04-21T06:52:47;36.13;;;17.23;;
64291;SDS011;50628;51.008;13.658;2023-04-21T06:57:51;39.83;;;18.47;;
64291;SDS011;50628;51.008;13.658;2023-04-21T07:02:52;38.97;;;16.27;;
64291;SDS011;50628;51.008;13.658;2023-04-21T07:07:54;31.53;;;14.43;;
64291;SDS011;50628;51.008;13.658;2023-04-21T07:13:00;17.57;;;6.77;;
64291;SDS011;50628;51.008;13.658;2023-04-21T07:18:02;7.50;;;5.13;;
64291;SDS011;50628;51.008;13.658;2023-04-21T07:23:04;17.77;;;4.83;;
64291;SDS011;50628;51.008;13.658;2023-04-21T07:28:07;17.87;;;4.70;;
64291;SDS011;50628;51.008;13.658;2023-04-21T07:33:10;10.87;;;4.80;;
64291;SDS011;50628;51.008;13.658;2023-04-21T07:38:12;15.67;;;4.93;;
64291;SDS011;50628;51.008;13.658;2023-04-21T07:43:15;17.03;;;5.00;;
64291;SDS011;50628;51.008;13.658;2023-04-21T07:48:18;19.20;;;5.33;;
64291;SDS011;50628;51.008;13.658;2023-04-21T07:53:20;13.93;;;5.20;;
64291;SDS011;50628;51.008;13.658;2023-04-21T07:58:23;14.53;;;4.30;;
64291;SDS011;50628;51.008;13.658;2023-04-21T08:03:25;20.57;;;5.27;;
64291;SDS011;50628;51.008;13.658;2023-04-21T08:08:27;12.87;;;4.40;;
64291;SDS011;50628;51.008;13.658;2023-04-21T08:13:30;7.67;;;3.23;;
64291;SDS011;50628;51.008;13.658;2023-04-21T08:18:32;13.93;;;4.13;;
64291;SDS011;50628;51.008;13.658;2023-04-21T08:23:34;12.77;;;3.73;;
64291;SDS011;50628;51.008;13.658;2023-04-21T08:28:37;12.50;;;3.93;;
64291;SDS011;50628;51.008;13.658;2023-04-21T08:33:39;11.93;;;4.00;;
64291;SDS011;50628;51.008;13.658;2023-04-21T08:38:41;12.23;;;3.97;;
64291;SDS011;50628;51.008;13.658;2023-04-21T08:43:45;10.10;;;2.93;;
64291;SDS011;50628;51.008;13.658;2023-04-21T08:48:47;14.40;;;3.80;;
64291;SDS011;50628;51.008;13.658;2023-04-21T08:53:49;15.07;;;3.55;;
64291;SDS011;50628;51.008;13.658;2023-04-21T08:58:52;12.40;;;2.90;;
64291;SDS011;50628;51.008;13.658;2023-04-21T09:03:55;12.10;;;2.88;;
64291;SDS011;50628;51.008;13.658;2023-04-21T09:09:16;10.50;;;3.38;;
64291;SDS011;50628;51.008;13.658;2023-04-21T09:14:20;13.38;;;3.30;;
64291;SDS011;50628;51.008;13.658;2023-04-21T09:19:21;6.95;;;1.92;;
64291;SDS011;50628;51.008;13.658;2023-04-21T09:24:23;10.77;;;2.67;;
64291;SDS011;50628;51.008;13.658;2023-04-21T09:29:26;10.13;;;2.65;;
64291;SDS011;50628;51.008;13.658;2023-04-21T09:34:28;10.95;;;2.50;;
64291;SDS011;50628;51.008;13.658;2023-04-21T09:39:32;10.18;;;2.08;;
64291;SDS011;50628;51.008;13.658;2023-04-21T09:44:36;14.95;;;2.25;;
64291;SDS011;50628;51.008;13.658;2023-04-21T09:49:38;13.60;;;2.20;;
64291;SDS011;50628;51.008;13.658;2023-04-21T09:54:44;16.67;;;2.33;;
64291;SDS011;50628;51.008;13.658;2023-04-21T09:59:53;9.15;;;1.77;;
64291;SDS011;50628;51.008;13.658;2023-04-21T10:05:00;8.70;;;1.95;;
64291;SDS011;50628;51.008;13.658;2023-04-21T10:10:05;8.88;;;2.30;;
64291;SDS011;50628;51.008;13.658;2023-04-21T10:20:31;10.65;;;2.20;;
64291;SDS011;50628;51.008;13.658;2023-04-21T10:25:34;12.60;;;2.10;;
64291;SDS011;50628;51.008;13.658;2023-04-21T10:30:40;14.07;;;1.63;;
64291;SDS011;50628;51.008;13.658;2023-04-21T10:35:57;10.73;;;1.90;;
64291;SDS011;50628;51.008;13.658;2023-04-21T10:41:08;11.52;;;1.92;;
64291;SDS011;50628;51.008;13.658;2023-04-21T10:46:34;9.02;;;2.50;;
64291;SDS011;50628;51.008;13.658;2023-04-21T10:57:08;8.15;;;2.00;;
64291;SDS011;50628;51.008;13.658;2023-04-21T11:02:13;9.90;;;2.20;;
64291;SDS011;50628;51.008;13.658;2023-04-21T11:07:17;10.27;;;2.67;;
64291;SDS011;50628;51.008;13.658;2023-04-21T11:12:19;10.68;;;1.60;;
64291;SDS011;50628;51.008;13.658;2023-04-21T11:17:23;10.43;;;1.77;;
64291;SDS011;50628;51.008;13.658;2023-04-21T11:22:25;8.82;;;1.83;;
64291;SDS011;50628;51.008;13.658;2023-04-21T11:27:27;5.57;;;1.77;;
64291;SDS011;50628;51.008;13.658;2023-04-21T11:32:31;7.05;;;1.88;;
64291;SDS011;50628;51.008;13.658;2023-04-21T11:37:33;16.35;;;2.35;;
64291;SDS011;50628;51.008;13.658;2023-04-21T11:42:35;16.52;;;4.18;;
64291;SDS011;50628;51.008;13.658;2023-04-21T11:47:38;20.40;;;2.85;;
64291;SDS011;50628;51.008;13.658;2023-04-21T11:52:40;8.95;;;1.95;;
64291;SDS011;50628;51.008;13.658;2023-04-21T11:57:43;6.57;;;1.65;;
64291;SDS011;50628;51.008;13.658;2023-04-21T12:02:52;10.60;;;1.85;;
64291;SDS011;50628;51.008;13.658;2023-04-21T12:07:55;15.27;;;1.90;;
64291;SDS011;50628;51.008;13.658;2023-04-21T12:12:59;10.15;;;1.80;;
64291;SDS011;50628;51.008;13.658;2023-04-21T12:18:03;9.25;;;2.35;;
64291;SDS011;50628;51.008;13.658;2023-04-21T12:23:13;10.82;;;2.13;;
64291;SDS011;50628;51.008;13.658;2023-04-21T12:28:15;7.45;;;1.73;;
64291;SDS011;50628;51.008;13.658;2023-04-21T12:33:19;9.30;;;1.75;;
64291;SDS011;50628;51.008;13.658;2023-04-21T12:38:20;7.88;;;1.70;;
64291;SDS011;50628;51.008;13.658;2023-04-21T12:43:22;9.68;;;2.45;;
64291;SDS011;50628;51.008;13.658;2023-04-21T12:48:26;12.02;;;5.05;;
64291;SDS011;50628;51.008;13.658;2023-04-21T12:53:28;4.97;;;1.10;;
64291;SDS011;50628;51.008;13.658;2023-04-21T12:58:29;5.28;;;1.90;;
64291;SDS011;50628;51.008;13.658;2023-04-21T13:03:33;6.43;;;1.48;;
64291;SDS011;50628;51.008;13.658;2023-04-21T13:08:35;12.40;;;2.55;;
64291;SDS011;50628;51.008;13.658;2023-04-21T13:13:36;9.82;;;2.85;;
64291;SDS011;50628;51.008;13.658;2023-04-21T13:18:40;6.72;;;2.22;;
64291;SDS011;50628;51.008;13.658;2023-04-21T13:23:42;8.15;;;1.75;;
64291;SDS011;50628;51.008;13.658;2023-04-21T13:28:44;8.52;;;1.98;;
64291;SDS011;50628;51.008;13.658;2023-04-21T13:33:47;10.13;;;3.47;;
64291;SDS011;50628;51.008;13.658;2023-04-21T13:38:49;5.60;;;1.67;;
64291;SDS011;50628;51.008;13.658;2023-04-21T13:43:53;7.93;;;2.17;;
64291;SDS011;50628;51.008;13.658;2023-04-21T13:48:57;16.77;;;2.58;;
64291;SDS011;50628;51.008;13.658;2023-04-21T13:53:59;6.93;;;1.60;;
64291;SDS011;50628;51.008;13.658;2023-04-21T13:59:01;11.75;;;2.03;;
64291;SDS011;50628;51.008;13.658;2023-04-21T14:04:04;8.88;;;1.50;;
64291;SDS011;50628;51.008;13.658;2023-04-21T14:09:06;5.75;;;1.30;;
64291;SDS011;50628;51.008;13.658;2023-04-21T14:14:08;6.07;;;1.83;;
64291;SDS011;50628;51.008;13.658;2023-04-21T14:19:12;10.02;;;1.52;;
64291;SDS011;50628;51.008;13.658;2023-04-21T14:24:14;4.95;;;1.38;;
64291;SDS011;50628;51.008;13.658;2023-04-21T14:29:16;13.75;;;1.50;;
64291;SDS011;50628;51.008;13.658;2023-04-21T14:34:19;8.43;;;1.73;;
64291;SDS011;50628;51.008;13.658;2023-04-21T14:39:23;7.13;;;1.70;;
64291;SDS011;50628;51.008;13.658;2023-04-21T14:44:25;6.80;;;1.70;;
64291;SDS011;50628;51.008;13.658;2023-04-21T14:49:28;6.55;;;1.80;;
64291;SDS011;50628;51.008;13.658;2023-04-21T14:54:30;6.38;;;1.45;;
64291;SDS011;50628;51.008;13.658;2023-04-21T14:59:32;5.43;;;1.65;;
64291;SDS011;50628;51.008;13.658;2023-04-21T15:04:35;7.53;;;1.60;;
64291;SDS011;50628;51.008;13.658;2023-04-21T15:09:37;9.18;;;1.83;;
64291;SDS011;50628;51.008;13.658;2023-04-21T15:14:40;8.50;;;2.00;;
64291;SDS011;50628;51.008;13.658;2023-04-21T15:19:43;7.03;;;1.50;;
64291;SDS011;50628;51.008;13.658;2023-04-21T15:24:45;6.05;;;2.00;;
64291;SDS011;50628;51.008;13.658;2023-04-21T15:29:47;9.93;;;1.65;;
64291;SDS011;50628;51.008;13.658;2023-04-21T15:34:51;6.78;;;1.60;;
64291;SDS011;50628;51.008;13.658;2023-04-21T15:39:53;7.55;;;1.90;;
64291;SDS011;50628;51.008;13.658;2023-04-21T15:44:55;10.60;;;2.33;;
64291;SDS011;50628;51.008;13.658;2023-04-21T15:49:58;6.95;;;2.20;;
64291;SDS011;50628;51.008;13.658;2023-04-21T15:55:00;9.50;;;1.80;;
64291;SDS011;50628;51.008;13.658;2023-04-21T16:00:02;12.30;;;2.42;;
64291;SDS011;50628;51.008;13.658;2023-04-21T16:05:08;12.93;;;3.88;;
64291;SDS011;50628;51.008;13.658;2023-04-21T16:10:10;5.72;;;2.20;;
64291;SDS011;50628;51.008;13.658;2023-04-21T16:15:12;10.98;;;2.10;;
64291;SDS011;50628;51.008;13.658;2023-04-21T16:20:15;8.43;;;2.15;;
64291;SDS011;50628;51.008;13.658;2023-04-21T16:25:17;7.97;;;1.58;;
64291;SDS011;50628;51.008;13.658;2023-04-21T16:30:19;11.27;;;2.58;;
64291;SDS011;50628;51.008;13.658;2023-04-21T16:35:23;7.85;;;2.88;;
64291;SDS011;50628;51.008;13.658;2023-04-21T16:40:25;9.85;;;4.60;;
64291;SDS011;50628;51.008;13.658;2023-04-21T16:45:27;9.23;;;4.57;;
64291;SDS011;50628;51.008;13.658;2023-04-21T16:50:31;7.60;;;4.55;;
64291;SDS011;50628;51.008;13.658;2023-04-21T16:55:33;13.95;;;5.20;;
64291;SDS011;50628;51.008;13.658;2023-04-21T17:00:34;6.55;;;4.72;;
64291;SDS011;50628;51.008;13.658;2023-04-21T17:05:38;17.10;;;5.10;;
64291;SDS011;50628;51.008;13.658;2023-04-21T17:10:40;9.57;;;5.72;;
64291;SDS011;50628;51.008;13.658;2023-04-21T17:15:42;8.95;;;5.45;;
64291;SDS011;50628;51.008;13.658;2023-04-21T17:20:45;12.48;;;5.35;;
64291;SDS011;50628;51.008;13.658;2023-04-21T17:25:47;18.48;;;6.10;;
64291;SDS011;50628;51.008;13.658;2023-04-21T17:30:49;10.98;;;5.47;;
64291;SDS011;50628;51.008;13.658;2023-04-21T17:35:52;10.23;;;5.65;;
64291;SDS011;50628;51.008;13.658;2023-04-21T17:40:54;12.23;;;5.28;;
64291;SDS011;50628;51.008;13.658;2023-04-21T17:45:56;9.88;;;5.53;;
64291;SDS011;50628;51.008;13.658;2023-04-21T17:51:00;11.98;;;6.05;;
64291;SDS011;50628;51.008;13.658;2023-04-21T17:56:03;10.35;;;5.13;;
64291;SDS011;50628;51.008;13.658;2023-04-21T18:01:05;10.23;;;5.72;;
64291;SDS011;50628;51.008;13.658;2023-04-21T18:06:08;31.10;;;7.47;;
64291;SDS011;50628;51.008;13.658;2023-04-21T18:11:12;11.73;;;6.53;;
64291;SDS011;50628;51.008;13.658;2023-04-21T18:16:14;14.55;;;5.57;;
64291;SDS011;50628;51.008;13.658;2023-04-21T18:21:17;12.73;;;6.43;;
64291;SDS011;50628;51.008;13.658;2023-04-21T18:26:20;12.38;;;6.57;;
64291;SDS011;50628;51.008;13.658;2023-04-21T18:31:22;11.52;;;6.30;;
64291;SDS011;50628;51.008;13.658;2023-04-21T18:36:26;13.40;;;5.95;;
64291;SDS011;50628;51.008;13.658;2023-04-21T18:41:28;10.57;;;5.57;;
64291;SDS011;50628;51.008;13.658;2023-04-21T18:46:30;9.73;;;6.43;;
64291;SDS011;50628;51.008;13.658;2023-04-21T18:51:33;11.23;;;6.05;;
64291;SDS011;50628;51.008;13.658;2023-04-21T18:56:35;8.98;;;6.18;;
64291;SDS011;50628;51.008;13.658;2023-04-21T19:01:37;15.70;;;6.20;;
64291;SDS011;50628;51.008;13.658;2023-04-21T19:06:41;15.82;;;6.63;;
64291;SDS011;50628;51.008;13.658;2023-04-21T19:11:43;10.52;;;6.85;;
64291;SDS011;50628;51.008;13.658;2023-04-21T19:16:45;19.23;;;8.70;;
64291;SDS011;50628;51.008;13.658;2023-04-21T19:21:49;16.35;;;7.75;;
64291;SDS011;50628;51.008;13.658;2023-04-21T19:26:51;19.00;;;7.38;;
64291;SDS011;50628;51.008;13.658;2023-04-21T19:31:53;15.85;;;6.65;;
64291;SDS011;50628;51.008;13.658;2023-04-21T19:36:56;17.60;;;7.60;;
64291;SDS011;50628;51.008;13.658;2023-04-21T19:41:58;17.47;;;7.83;;
64291;SDS011;50628;51.008;13.658;2023-04-21T19:47:00;12.67;;;8.03;;
64291;SDS011;50628;51.008;13.658;2023-04-21T19:52:03;13.40;;;7.60;;
64291;SDS011;50628;51.008;13.658;2023-04-21T19:57:05;10.47;;;7.57;;
64291;SDS011;50628;51.008;13.658;2023-04-21T20:02:07;14.13;;;7.13;;
64291;SDS011;50628;51.008;13.658;2023-04-21T20:07:10;10.50;;;6.50;;
64291;SDS011;50628;51.008;13.658;2023-04-21T20:12:12;14.43;;;7.30;;
64291;SDS011;50628;51.008;13.658;2023-04-21T20:17:14;21.53;;;8.27;;
64291;SDS011;50628;51.008;13.658;2023-04-21T20:22:17;14.77;;;7.77;;
64291;SDS011;50628;51.008;13.658;2023-04-21T20:27:19;18.00;;;8.30;;
64291;SDS011;50628;51.008;13.658;2023-04-21T20:32:21;10.47;;;7.23;;
64291;SDS011;50628;51.008;13.658;2023-04-21T20:37:24;15.40;;;8.77;;
64291;SDS011;50628;51.008;13.658;2023-04-21T20:42:26;11.93;;;8.93;;
64291;SDS011;50628;51.008;13.658;2023-04-21T20:47:28;20.03;;;8.10;;
64291;SDS011;50628;51.008;13.658;2023-04-21T20:52:32;16.17;;;9.10;;
64291;SDS011;50628;51.008;13.658;2023-04-21T20:57:33;16.40;;;10.30;;
64291;SDS011;50628;51.008;13.658;2023-04-21T21:02:35;20.00;;;11.07;;
64291;SDS011;50628;51.008;13.658;2023-04-21T21:07:38;17.37;;;12.50;;
64291;SDS011;50628;51.008;13.658;2023-04-21T21:12:40;14.47;;;11.00;;
64291;SDS011;50628;51.008;13.658;2023-04-21T21:17:42;14.70;;;10.20;;
64291;SDS011;50628;51.008;13.658;2023-04-21T21:22:46;16.73;;;9.20;;
64291;SDS011;50628;51.008;13.658;2023-04-21T21:27:47;19.17;;;9.83;;
64291;SDS011;50628;51.008;13.658;2023-04-21T21:32:50;17.43;;;9.43;;
64291;SDS011;50628;51.008;13.658;2023-04-21T21:37:54;16.37;;;10.67;;
64291;SDS011;50628;51.008;13.658;2023-04-21T21:42:56;14.53;;;9.20;;
64291;SDS011;50628;51.008;13.658;2023-04-21T21:47:58;21.67;;;10.67;;
64291;SDS011;50628;51.008;13.658;2023-04-21T21:53:01;12.53;;;9.53;;
64291;SDS011;50628;51.008;13.658;2023-04-21T21:58:03;14.43;;;9.80;;
64291;SDS011;50628;51.008;13.658;2023-04-21T22:03:05;15.80;;;9.33;;
64291;SDS011;50628;51.008;13.658;2023-04-21T22:08:08;14.00;;;9.10;;
64291;SDS011;50628;51.008;13.658;2023-04-21T22:13:11;13.67;;;7.83;;
64291;SDS011;50628;51.008;13.658;2023-04-21T22:18:13;14.50;;;7.80;;
64291;SDS011;50628;51.008;13.658;2023-04-21T22:23:19;13.27;;;7.50;;
64291;SDS011;50628;51.008;13.658;2023-04-21T22:28:21;12.60;;;7.17;;
64291;SDS011;50628;51.008;13.658;2023-04-21T22:33:23;11.13;;;7.27;;
64291;SDS011;50628;51.008;13.658;2023-04-21T22:38:26;12.53;;;7.77;;
64291;SDS011;50628;51.008;13.658;2023-04-21T22:43:28;8.80;;;6.10;;
64291;SDS011;50628;51.008;13.658;2023-04-21T22:48:30;6.93;;;5.13;;
64291;SDS011;50628;51.008;13.658;2023-04-21T22:53:33;12.20;;;6.93;;
64291;SDS011;50628;51.008;13.658;2023-04-21T22:58:35;14.27;;;7.80;;
64291;SDS011;50628;51.008;13.658;2023-04-21T23:03:37;11.23;;;8.80;;
64291;SDS011;50628;51.008;13.658;2023-04-21T23:08:40;13.80;;;7.77;;
64291;SDS011;50628;51.008;13.658;2023-04-21T23:13:42;21.27;;;8.30;;
64291;SDS011;50628;51.008;13.658;2023-04-21T23:18:44;11.27;;;8.53;;
64291;SDS011;50628;51.008;13.658;2023-04-21T23:23:47;11.53;;;8.30;;
64291;SDS011;50628;51.008;13.658;2023-04-21T23:28:49;13.17;;;8.40;;
64291;SDS011;50628;51.008;13.658;2023-04-21T23:33:51;12.43;;;6.70;;
64291;SDS011;50628;51.008;13.658;2023-04-21T23:38:54;17.57;;;8.27;;
64291;SDS011;50628;51.008;13.658;2023-04-21T23:43:56;12.40;;;8.70;;
64291;SDS011;50628;51.008;13.658;2023-04-21T23:48:58;13.53;;;8.57;;
64291;SDS011;50628;51.008;13.658;2023-04-21T23:54:01;12.07;;;8.27;;
64291;SDS011;50628;51.008;13.658;2023-04-21T23:59:03;9.63;;;8.00;;
